createdAt,value
2022-12-04T00:00:47.510Z,10.40
2022-12-04T00:01:50.599Z,11.02
2022-12-04T00:02:52.632Z,11.48
2022-12-04T00:03:56.876Z,10.70
2022-12-04T00:04:59.009Z,9.55
2022-12-04T00:06:06.829Z,10.43
2022-12-04T00:07:08.892Z,10.35
2022-12-04T00:08:11.991Z,10.60
2022-12-04T00:09:14.130Z,10.57
2022-12-04T00:10:17.246Z,11.00
2022-12-04T00:11:21.381Z,11.73
2022-12-04T00:12:25.988Z,10.35
2022-12-04T00:13:28.031Z,10.90
2022-12-04T00:14:31.126Z,11.20
2022-12-04T00:15:33.136Z,10.77
2022-12-04T00:16:36.775Z,10.40
2022-12-04T00:17:38.835Z,11.00
2022-12-04T00:18:42.123Z,10.80
2022-12-04T00:19:44.186Z,11.07
2022-12-04T00:20:47.245Z,10.27
2022-12-04T00:21:50.030Z,10.25
2022-12-04T00:22:53.140Z,10.40
2022-12-04T00:23:55.231Z,10.18
2022-12-04T00:24:58.280Z,10.80
2022-12-04T00:26:01.223Z,10.55
2022-12-04T00:27:04.594Z,10.70
2022-12-04T00:28:08.229Z,10.25
2022-12-04T00:29:11.286Z,10.95
2022-12-04T00:30:14.017Z,11.43
2022-12-04T00:31:19.774Z,10.20
2022-12-04T00:32:22.825Z,10.93
2022-12-04T00:33:24.864Z,11.63
2022-12-04T00:34:28.292Z,11.90
2022-12-04T00:35:30.348Z,10.48
2022-12-04T00:36:33.354Z,10.57
2022-12-04T00:37:35.476Z,11.90
2022-12-04T00:38:40.065Z,10.85
2022-12-04T00:39:43.099Z,11.27
2022-12-04T00:40:49.636Z,10.73
2022-12-04T00:41:52.650Z,11.43
2022-12-04T00:42:54.701Z,11.13
2022-12-04T00:43:59.850Z,10.68
2022-12-04T00:45:01.872Z,10.70
2022-12-04T00:46:05.096Z,10.30
2022-12-04T00:47:07.215Z,11.38
2022-12-04T00:48:10.686Z,10.90
2022-12-04T00:49:12.734Z,10.85
2022-12-04T00:50:15.750Z,10.85
2022-12-04T00:51:19.804Z,11.88
2022-12-04T00:52:23.194Z,10.63
2022-12-04T00:53:25.205Z,10.43
2022-12-04T00:54:28.282Z,10.45
2022-12-04T00:55:30.395Z,10.13
2022-12-04T00:56:33.407Z,10.57
2022-12-04T00:57:35.717Z,10.80
2022-12-04T00:58:38.782Z,11.20
2022-12-04T00:59:42.222Z,10.38
2022-12-04T01:00:45.275Z,10.18
2022-12-04T01:01:48.427Z,11.13
2022-12-04T01:02:50.480Z,10.27
2022-12-04T01:03:55.217Z,12.35
2022-12-04T01:04:57.260Z,11.48
2022-12-04T01:06:00.290Z,10.40
2022-12-04T01:07:05.224Z,11.82
2022-12-04T01:08:08.959Z,11.20
2022-12-04T01:09:11.019Z,11.00
2022-12-04T01:10:14.688Z,11.88
2022-12-04T01:11:17.825Z,11.20
2022-12-04T01:12:21.224Z,11.18
2022-12-04T01:13:24.372Z,10.40
2022-12-04T01:14:27.430Z,10.68
2022-12-04T01:15:30.997Z,10.82
2022-12-04T01:16:36.672Z,11.15
2022-12-04T01:17:38.838Z,14.75
2022-12-04T01:18:41.848Z,17.65
2022-12-04T01:19:44.056Z,18.65
2022-12-04T01:20:49.704Z,16.98
2022-12-04T01:21:51.795Z,12.55
2022-12-04T01:22:54.809Z,14.00
2022-12-04T01:23:58.740Z,14.32
2022-12-04T01:25:01.765Z,11.50
2022-12-04T01:26:03.811Z,10.50
2022-12-04T01:27:06.911Z,10.07
2022-12-04T01:28:08.954Z,9.82
2022-12-04T01:29:13.067Z,10.35
2022-12-04T01:30:15.340Z,9.73
2022-12-04T01:31:21.107Z,9.52
2022-12-04T01:32:23.248Z,9.70
2022-12-04T01:33:26.246Z,9.77
2022-12-04T01:34:28.311Z,9.25
2022-12-04T01:35:31.355Z,9.07
2022-12-04T01:36:33.440Z,14.00
2022-12-04T01:37:36.479Z,18.67
2022-12-04T01:38:39.502Z,17.02
2022-12-04T01:39:42.531Z,17.35
2022-12-04T01:40:44.925Z,18.52
2022-12-04T01:41:47.943Z,19.80
2022-12-04T01:42:50.008Z,22.30
2022-12-04T01:44:14.202Z,19.08
2022-12-04T01:45:39.788Z,17.15
2022-12-04T01:46:45.593Z,17.63
2022-12-04T01:47:47.668Z,17.92
2022-12-04T01:48:52.812Z,15.82
2022-12-04T01:49:55.138Z,17.25
2022-12-04T01:51:03.526Z,17.50
2022-12-04T01:52:12.554Z,18.73
2022-12-04T01:53:15.149Z,16.63
2022-12-04T01:54:22.591Z,17.67
2022-12-04T01:55:25.067Z,16.58
2022-12-04T01:56:32.911Z,16.50
2022-12-04T01:57:36.463Z,16.85
2022-12-04T01:58:44.054Z,17.73
2022-12-04T01:59:53.601Z,12.60
2022-12-04T02:01:08.205Z,12.13
2022-12-04T02:02:14.897Z,10.90
2022-12-04T02:03:18.414Z,12.45
2022-12-04T02:04:20.704Z,12.93
2022-12-04T02:05:24.956Z,12.45
2022-12-04T02:06:27.035Z,12.15
2022-12-04T02:07:30.433Z,11.55
2022-12-04T02:08:34.440Z,10.88
2022-12-04T02:09:39.585Z,10.65
2022-12-04T02:10:50.521Z,10.52
2022-12-04T02:11:58.919Z,10.35
2022-12-04T02:13:10.073Z,9.27
2022-12-04T02:14:22.236Z,9.50
2022-12-04T02:15:34.238Z,7.95
2022-12-04T02:16:44.515Z,8.80
2022-12-04T02:17:53.476Z,9.07
2022-12-04T02:19:05.988Z,8.13
2022-12-04T02:20:21.600Z,8.60
2022-12-04T02:21:32.246Z,8.57
2022-12-04T02:22:49.852Z,9.35
2022-12-04T02:24:04.224Z,8.13
2022-12-04T02:25:16.664Z,8.53
2022-12-04T02:26:40.981Z,9.48
2022-12-04T02:28:03.329Z,9.43
2022-12-04T02:29:11.633Z,8.77
2022-12-04T02:30:14.358Z,9.88
2022-12-04T02:31:21.219Z,9.45
2022-12-04T02:32:32.372Z,9.05
2022-12-04T02:33:41.480Z,8.57
2022-12-04T02:34:47.526Z,9.32
2022-12-04T02:35:56.254Z,8.90
2022-12-04T02:37:03.369Z,8.67
2022-12-04T02:38:12.931Z,9.27
2022-12-04T02:39:21.470Z,9.40
2022-12-04T02:40:27.766Z,9.00
2022-12-04T02:41:36.599Z,8.90
2022-12-04T02:42:43.860Z,8.48
2022-12-04T02:43:51.459Z,8.85
2022-12-04T02:44:58.324Z,8.83
2022-12-04T02:46:05.563Z,9.55
2022-12-04T02:47:13.215Z,10.18
2022-12-04T02:48:19.364Z,10.75
2022-12-04T02:49:28.093Z,10.10
2022-12-04T02:50:32.598Z,12.50
2022-12-04T02:51:39.956Z,12.95
2022-12-04T02:52:46.909Z,14.52
2022-12-04T02:53:53.882Z,14.88
2022-12-04T02:54:58.664Z,15.40
2022-12-04T02:56:06.328Z,15.43
2022-12-04T02:57:13.234Z,15.32
2022-12-04T02:58:20.631Z,14.50
2022-12-04T02:59:29.231Z,15.35
2022-12-04T03:00:33.602Z,15.05
2022-12-04T03:01:39.979Z,15.60
2022-12-04T03:02:51.260Z,15.75
2022-12-04T03:03:58.895Z,15.27
2022-12-04T03:05:06.378Z,17.17
2022-12-04T03:06:12.512Z,17.58
2022-12-04T03:07:21.157Z,14.95
2022-12-04T03:08:26.443Z,16.35
2022-12-04T03:09:34.008Z,15.85
2022-12-04T03:10:43.755Z,15.65
2022-12-04T03:11:51.257Z,15.43
2022-12-04T03:12:56.572Z,15.43
2022-12-04T03:14:02.997Z,15.90
2022-12-04T03:15:11.577Z,15.15
2022-12-04T03:16:20.808Z,15.48
2022-12-04T03:17:27.178Z,15.90
2022-12-04T03:18:33.938Z,14.93
2022-12-04T03:19:39.651Z,14.23
2022-12-04T03:20:44.969Z,14.75
2022-12-04T03:21:52.304Z,15.68
2022-12-04T03:23:00.536Z,15.05
2022-12-04T03:24:10.599Z,14.40
2022-12-04T03:25:14.288Z,15.20
2022-12-04T03:26:25.941Z,14.20
2022-12-04T03:27:35.392Z,15.20
2022-12-04T03:28:46.675Z,18.02
2022-12-04T03:29:56.586Z,16.23
2022-12-04T03:31:06.527Z,19.85
2022-12-04T03:32:14.167Z,22.58
2022-12-04T03:33:19.857Z,19.13
2022-12-04T03:34:29.029Z,13.07
2022-12-04T03:35:36.790Z,13.13
2022-12-04T03:36:50.313Z,15.57
2022-12-04T03:38:00.247Z,13.88
2022-12-04T03:39:18.400Z,13.60
2022-12-04T03:40:23.707Z,12.90
2022-12-04T03:41:33.305Z,12.52
2022-12-04T03:42:41.092Z,12.80
2022-12-04T03:43:51.947Z,12.52
2022-12-04T03:45:01.148Z,13.15
2022-12-04T03:46:10.828Z,13.30
2022-12-04T03:47:17.108Z,12.18
2022-12-04T03:48:25.157Z,12.77
2022-12-04T03:49:38.068Z,11.85
2022-12-04T03:50:46.660Z,12.40
2022-12-04T03:51:57.721Z,13.07
2022-12-04T03:53:07.861Z,12.45
2022-12-04T03:54:14.666Z,12.70
2022-12-04T03:55:25.532Z,12.00
2022-12-04T03:56:32.311Z,12.93
2022-12-04T03:57:40.321Z,12.50
2022-12-04T03:58:47.241Z,13.68
2022-12-04T03:59:56.405Z,12.30
2022-12-04T04:01:01.756Z,12.13
2022-12-04T04:02:09.382Z,11.98
2022-12-04T04:03:15.171Z,11.77
2022-12-04T04:04:25.770Z,12.25
2022-12-04T04:05:29.977Z,12.05
2022-12-04T04:06:37.840Z,12.27
2022-12-04T04:07:44.266Z,12.05
2022-12-04T04:08:50.775Z,12.85
2022-12-04T04:09:58.718Z,11.25
2022-12-04T04:11:10.082Z,12.02
2022-12-04T04:12:15.645Z,12.27
2022-12-04T04:13:39.338Z,11.95
2022-12-04T04:15:04.401Z,11.00
2022-12-04T04:16:29.455Z,11.07
2022-12-04T04:17:56.708Z,11.73
2022-12-04T04:19:20.543Z,13.32
2022-12-04T04:20:57.022Z,11.32
2022-12-04T04:22:20.378Z,11.65
2022-12-04T04:23:42.254Z,12.15
2022-12-04T04:24:49.707Z,12.27
2022-12-04T04:25:53.029Z,12.68
2022-12-04T04:26:59.000Z,12.80
2022-12-04T04:28:01.084Z,12.65
2022-12-04T04:29:04.665Z,12.88
2022-12-04T04:30:08.525Z,12.95
2022-12-04T04:31:21.254Z,12.05
2022-12-04T04:32:35.035Z,11.90
2022-12-04T04:33:48.307Z,11.82
2022-12-04T04:34:56.729Z,10.13
2022-12-04T04:36:09.248Z,11.10
2022-12-04T04:37:20.500Z,11.25
2022-12-04T04:38:29.917Z,12.20
2022-12-04T04:39:35.856Z,11.82
2022-12-04T04:40:45.680Z,12.45
2022-12-04T04:41:54.010Z,10.93
2022-12-04T04:43:04.041Z,10.73
2022-12-04T04:44:15.447Z,11.40
2022-12-04T04:45:24.117Z,11.43
2022-12-04T04:46:32.149Z,11.65
2022-12-04T04:47:41.944Z,10.40
2022-12-04T04:48:50.343Z,11.02
2022-12-04T04:49:56.908Z,10.95
2022-12-04T04:51:00.029Z,11.93
2022-12-04T04:52:03.791Z,11.27
2022-12-04T04:53:10.202Z,10.90
2022-12-04T04:54:16.017Z,11.23
2022-12-04T04:55:19.565Z,11.57
2022-12-04T04:56:23.531Z,10.40
2022-12-04T04:57:27.631Z,10.52
2022-12-04T04:58:30.709Z,11.13
2022-12-04T04:59:34.542Z,9.80
2022-12-04T05:00:38.111Z,9.77
2022-12-04T05:01:41.424Z,10.80
2022-12-04T05:02:46.207Z,10.43
2022-12-04T05:03:48.412Z,10.07
2022-12-04T05:04:51.391Z,10.57
2022-12-04T05:05:53.687Z,10.02
2022-12-04T05:06:56.763Z,10.10
2022-12-04T05:07:58.836Z,10.85
2022-12-04T05:09:01.913Z,10.50
2022-12-04T05:10:05.399Z,9.10
2022-12-04T05:11:13.632Z,10.38
2022-12-04T05:12:15.933Z,9.73
2022-12-04T05:13:19.739Z,9.93
2022-12-04T05:14:21.778Z,9.95
2022-12-04T05:15:24.801Z,9.55
2022-12-04T05:16:26.911Z,10.02
2022-12-04T05:17:30.013Z,9.75
2022-12-04T05:18:35.078Z,10.30
2022-12-04T05:19:57.022Z,9.93
2022-12-04T05:21:00.539Z,9.98
2022-12-04T05:22:02.575Z,9.77
2022-12-04T05:23:05.583Z,9.95
2022-12-04T05:24:08.542Z,9.93
2022-12-04T05:25:11.797Z,9.85
2022-12-04T05:26:14.119Z,9.43
2022-12-04T05:27:17.233Z,9.20
2022-12-04T05:28:19.286Z,9.48
2022-12-04T05:29:22.367Z,8.95
2022-12-04T05:30:24.558Z,8.82
2022-12-04T05:31:27.655Z,8.63
2022-12-04T05:32:30.226Z,8.73
2022-12-04T05:33:34.654Z,8.55
2022-12-04T05:34:36.772Z,9.02
2022-12-04T05:35:39.982Z,9.25
2022-12-04T05:36:42.051Z,10.18
2022-12-04T05:37:45.520Z,9.05
2022-12-04T05:38:47.686Z,8.88
2022-12-04T05:39:50.823Z,9.73
2022-12-04T05:40:53.062Z,8.85
2022-12-04T05:41:56.087Z,9.32
2022-12-04T05:42:58.110Z,9.13
2022-12-04T05:44:01.124Z,9.20
2022-12-04T05:45:04.695Z,8.48
2022-12-04T05:46:08.587Z,9.05
2022-12-04T05:47:11.855Z,9.65
2022-12-04T05:48:13.902Z,8.75
2022-12-04T05:49:18.400Z,8.35
2022-12-04T05:50:20.508Z,10.73
2022-12-04T05:51:23.518Z,10.38
2022-12-04T05:52:25.578Z,9.90
2022-12-04T05:53:28.569Z,9.60
2022-12-04T05:54:30.633Z,9.73
2022-12-04T05:55:33.689Z,9.30
2022-12-04T05:56:35.702Z,9.23
2022-12-04T05:57:38.733Z,9.65
2022-12-04T05:58:40.785Z,10.25
2022-12-04T05:59:43.843Z,10.15
2022-12-04T06:00:45.854Z,9.30
2022-12-04T06:01:48.938Z,10.15
2022-12-04T06:02:51.109Z,9.13
2022-12-04T06:03:54.224Z,8.68
2022-12-04T06:04:57.561Z,9.27
2022-12-04T06:06:00.524Z,9.10
2022-12-04T06:07:03.599Z,9.48
2022-12-04T06:08:05.612Z,9.50
2022-12-04T06:09:10.183Z,10.13
2022-12-04T06:10:12.364Z,8.98
2022-12-04T06:11:16.916Z,8.73
2022-12-04T06:12:18.928Z,9.27
2022-12-04T06:13:21.906Z,8.43
2022-12-04T06:14:23.963Z,9.20
2022-12-04T06:15:26.961Z,9.27
2022-12-04T06:16:31.306Z,9.35
2022-12-04T06:17:34.416Z,8.15
2022-12-04T06:18:36.479Z,8.57
2022-12-04T06:19:40.662Z,8.60
2022-12-04T06:20:44.039Z,8.50
2022-12-04T06:21:49.065Z,8.68
2022-12-04T06:22:51.091Z,9.45
2022-12-04T06:23:55.427Z,9.23
2022-12-04T06:24:57.455Z,8.40
2022-12-04T06:26:07.193Z,8.73
2022-12-04T06:27:27.688Z,8.10
2022-12-04T06:28:30.468Z,8.95
2022-12-04T06:29:33.758Z,9.90
2022-12-04T06:30:35.830Z,9.95
2022-12-04T06:31:39.302Z,9.10
2022-12-04T06:32:41.336Z,10.50
2022-12-04T06:33:44.512Z,9.30
2022-12-04T06:34:46.562Z,9.93
2022-12-04T06:35:59.395Z,9.38
2022-12-04T06:37:01.432Z,9.88
2022-12-04T06:38:04.434Z,9.00
2022-12-04T06:39:06.624Z,9.98
2022-12-04T06:40:10.471Z,9.30
2022-12-04T06:41:15.074Z,9.07
2022-12-04T06:42:18.463Z,8.52
2022-12-04T06:43:20.541Z,9.50
2022-12-04T06:44:23.572Z,9.77
2022-12-04T06:45:25.618Z,9.80
2022-12-04T06:46:30.393Z,9.10
2022-12-04T06:47:34.145Z,9.23
2022-12-04T06:48:37.525Z,9.30
2022-12-04T06:49:39.768Z,9.30
2022-12-04T06:50:42.807Z,9.77
2022-12-04T06:51:46.144Z,9.23
2022-12-04T06:52:49.192Z,8.60
2022-12-04T06:53:52.051Z,9.77
2022-12-04T06:54:55.080Z,9.30
2022-12-04T06:55:58.101Z,10.70
2022-12-04T06:57:01.081Z,10.50
2022-12-04T06:58:03.156Z,10.18
2022-12-04T06:59:06.724Z,10.45
2022-12-04T07:00:09.786Z,9.98
2022-12-04T07:01:15.508Z,10.65
2022-12-04T07:02:18.725Z,9.52
2022-12-04T07:03:21.816Z,10.43
2022-12-04T07:04:24.971Z,10.23
2022-12-04T07:05:27.601Z,10.20
2022-12-04T07:06:32.978Z,10.45
2022-12-04T07:07:36.530Z,8.88
2022-12-04T07:08:39.574Z,9.52
2022-12-04T07:09:41.588Z,9.93
2022-12-04T07:10:45.469Z,9.68
2022-12-04T07:11:47.498Z,10.15
2022-12-04T07:12:50.501Z,10.63
2022-12-04T07:13:52.675Z,10.98
2022-12-04T07:14:55.740Z,10.77
2022-12-04T07:16:00.410Z,10.48
2022-12-04T07:17:03.452Z,10.63
2022-12-04T07:18:05.850Z,9.63
2022-12-04T07:19:09.114Z,11.13
2022-12-04T07:20:12.223Z,10.73
2022-12-04T07:21:18.600Z,10.35
2022-12-04T07:22:20.655Z,10.05
2022-12-04T07:23:25.294Z,10.27
2022-12-04T07:24:28.340Z,11.05
2022-12-04T07:25:31.244Z,10.63
2022-12-04T07:26:34.251Z,10.80
2022-12-04T07:27:36.325Z,10.18
2022-12-04T07:28:40.426Z,10.63
2022-12-04T07:29:43.537Z,9.95
2022-12-04T07:30:46.556Z,10.27
2022-12-04T07:31:48.979Z,10.20
2022-12-04T07:32:52.028Z,10.70
2022-12-04T07:33:54.548Z,10.60
2022-12-04T07:34:57.758Z,10.30
2022-12-04T07:36:01.571Z,10.15
2022-12-04T07:37:04.588Z,9.87
2022-12-04T07:38:06.616Z,9.68
2022-12-04T07:39:10.961Z,9.73
2022-12-04T07:40:13.964Z,10.13
2022-12-04T07:41:17.755Z,9.57
2022-12-04T07:42:24.126Z,9.80
2022-12-04T07:43:28.133Z,9.93
2022-12-04T07:44:31.940Z,9.97
2022-12-04T07:45:34.017Z,10.25
2022-12-04T07:46:37.082Z,8.77
2022-12-04T07:47:39.136Z,9.87
2022-12-04T07:48:42.230Z,9.50
2022-12-04T07:49:44.269Z,8.83
2022-12-04T07:50:47.382Z,8.83
2022-12-04T07:51:50.423Z,8.77
2022-12-04T07:52:52.438Z,9.88
2022-12-04T07:54:02.071Z,8.98
2022-12-04T07:55:09.144Z,8.68
2022-12-04T07:56:12.520Z,9.37
2022-12-04T07:57:15.587Z,9.73
2022-12-04T07:58:17.599Z,9.30
2022-12-04T07:59:20.705Z,9.02
2022-12-04T08:00:22.981Z,8.53
2022-12-04T08:01:26.142Z,9.32
2022-12-04T08:02:28.265Z,8.50
2022-12-04T08:03:31.298Z,8.13
2022-12-04T08:04:34.422Z,8.55
2022-12-04T08:05:36.508Z,8.88
2022-12-04T08:06:39.672Z,8.15
2022-12-04T08:07:41.836Z,8.80
2022-12-04T08:08:44.928Z,8.65
2022-12-04T08:09:48.134Z,8.32
2022-12-04T08:10:51.624Z,9.18
2022-12-04T08:11:54.610Z,8.35
2022-12-04T08:12:56.660Z,9.20
2022-12-04T08:14:01.361Z,9.30
2022-12-04T08:15:03.933Z,8.70
2022-12-04T08:16:09.493Z,8.68
2022-12-04T08:17:11.615Z,8.98
2022-12-04T08:18:14.714Z,8.75
2022-12-04T08:19:16.731Z,8.10
2022-12-04T08:20:19.731Z,9.40
2022-12-04T08:21:23.997Z,9.27
2022-12-04T08:22:27.057Z,9.10
2022-12-04T08:23:29.083Z,8.05
2022-12-04T08:24:32.152Z,9.70
2022-12-04T08:25:34.203Z,9.18
2022-12-04T08:26:38.590Z,9.15
2022-12-04T08:27:47.169Z,8.75
2022-12-04T08:28:50.784Z,9.43
2022-12-04T08:29:57.020Z,8.70
2022-12-04T08:31:03.730Z,8.88
2022-12-04T08:32:07.304Z,9.32
2022-12-04T08:33:09.394Z,8.60
2022-12-04T08:34:12.440Z,8.50
2022-12-04T08:35:15.886Z,8.80
2022-12-04T08:36:21.706Z,9.18
2022-12-04T08:37:27.438Z,8.75
2022-12-04T08:38:29.466Z,9.35
2022-12-04T08:39:32.543Z,9.63
2022-12-04T08:40:34.632Z,10.60
2022-12-04T08:41:39.119Z,9.50
2022-12-04T08:42:41.105Z,8.90
2022-12-04T08:43:44.527Z,9.20
2022-12-04T08:44:47.563Z,9.95
2022-12-04T08:45:55.954Z,10.02
2022-12-04T08:46:58.969Z,10.02
2022-12-04T08:48:02.175Z,10.55
2022-12-04T08:49:05.273Z,10.63
2022-12-04T08:50:09.007Z,10.75
2022-12-04T08:51:15.060Z,11.05
2022-12-04T08:52:18.097Z,10.40
2022-12-04T08:53:20.615Z,9.88
2022-12-04T08:54:23.653Z,9.75
2022-12-04T08:55:26.660Z,10.25
2022-12-04T08:56:32.171Z,10.32
2022-12-04T08:57:35.635Z,10.23
2022-12-04T08:58:39.117Z,10.18
2022-12-04T08:59:42.679Z,9.85
2022-12-04T09:00:45.301Z,10.13
2022-12-04T09:01:51.001Z,10.82
2022-12-04T09:02:53.097Z,10.70
2022-12-04T09:03:56.536Z,9.45
2022-12-04T09:04:58.663Z,9.23
2022-12-04T09:06:02.840Z,9.52
2022-12-04T09:07:05.999Z,9.35
2022-12-04T09:08:08.410Z,9.38
2022-12-04T09:09:12.446Z,9.82
2022-12-04T09:10:14.513Z,8.57
2022-12-04T09:11:19.894Z,9.73
2022-12-04T09:12:21.900Z,10.18
2022-12-04T09:13:26.269Z,10.90
2022-12-04T09:14:29.310Z,9.77
2022-12-04T09:15:31.669Z,9.27
2022-12-04T09:16:34.938Z,10.30
2022-12-04T09:17:37.337Z,10.00
2022-12-04T09:18:40.493Z,9.18
2022-12-04T09:19:42.628Z,9.90
2022-12-04T09:20:45.707Z,10.40
2022-12-04T09:21:47.992Z,9.55
2022-12-04T09:23:03.966Z,10.27
2022-12-04T09:24:07.962Z,10.00
2022-12-04T09:25:11.849Z,9.80
2022-12-04T09:26:21.557Z,9.73
2022-12-04T09:27:24.574Z,9.88
2022-12-04T09:28:28.460Z,10.93
2022-12-04T09:29:31.517Z,9.57
2022-12-04T09:30:33.607Z,9.88
2022-12-04T09:31:36.882Z,8.77
2022-12-04T09:32:39.030Z,9.18
2022-12-04T09:33:42.045Z,9.93
2022-12-04T09:34:48.296Z,9.50
2022-12-04T09:35:53.523Z,9.55
2022-12-04T09:36:56.536Z,9.18
2022-12-04T09:37:59.236Z,9.75
2022-12-04T09:39:02.261Z,9.17
2022-12-04T09:40:05.675Z,9.95
2022-12-04T09:41:30.756Z,9.70
2022-12-04T09:42:41.583Z,9.10
2022-12-04T09:43:49.408Z,9.65
2022-12-04T09:44:56.654Z,9.00
2022-12-04T09:46:03.254Z,9.33
2022-12-04T09:47:09.930Z,10.35
2022-12-04T09:48:13.964Z,8.77
2022-12-04T09:49:21.244Z,10.30
2022-12-04T09:50:27.383Z,10.18
2022-12-04T09:51:31.416Z,9.85
2022-12-04T09:52:45.512Z,9.77
2022-12-04T09:53:53.850Z,9.73
2022-12-04T09:54:57.043Z,9.15
2022-12-04T09:56:03.325Z,9.75
2022-12-04T09:57:15.472Z,9.20
2022-12-04T09:58:22.175Z,9.10
2022-12-04T09:59:27.769Z,9.83
2022-12-04T10:00:33.649Z,8.80
2022-12-04T10:01:44.596Z,9.50
2022-12-04T10:02:53.538Z,9.30
2022-12-04T10:04:02.642Z,9.40
2022-12-04T10:05:17.687Z,8.57
2022-12-04T10:06:24.343Z,8.57
2022-12-04T10:07:35.465Z,9.67
2022-12-04T10:08:40.662Z,8.73
2022-12-04T10:09:49.950Z,9.33
2022-12-04T10:11:02.593Z,9.60
2022-12-04T10:12:16.004Z,9.43
2022-12-04T10:13:41.151Z,9.50
2022-12-04T10:14:59.455Z,9.33
2022-12-04T10:16:11.635Z,9.40
2022-12-04T10:17:32.696Z,9.40
2022-12-04T10:18:49.132Z,9.38
2022-12-04T10:20:00.058Z,9.80
2022-12-04T10:21:21.943Z,9.20
2022-12-04T10:22:29.863Z,9.33
2022-12-04T10:23:44.674Z,9.40
2022-12-04T10:24:52.228Z,9.80
2022-12-04T10:25:56.645Z,8.98
2022-12-04T10:27:02.297Z,9.57
2022-12-04T10:28:15.243Z,9.95
2022-12-04T10:29:23.689Z,9.82
2022-12-04T10:30:29.939Z,9.02
2022-12-04T10:31:35.972Z,9.60
2022-12-04T10:32:39.073Z,10.00
2022-12-04T10:33:45.175Z,10.63
2022-12-04T10:34:50.419Z,10.07
2022-12-04T10:35:55.883Z,9.93
2022-12-04T10:37:01.769Z,9.57
2022-12-04T10:38:07.717Z,10.65
2022-12-04T10:39:18.834Z,10.47
2022-12-04T10:40:26.119Z,10.00
2022-12-04T10:41:34.709Z,9.03
2022-12-04T10:42:42.191Z,11.00
2022-12-04T10:43:46.461Z,10.40
2022-12-04T10:44:49.582Z,11.20
2022-12-04T10:45:53.026Z,10.33
2022-12-04T10:46:59.437Z,11.00
2022-12-04T10:48:01.768Z,11.55
2022-12-04T10:49:13.296Z,11.27
2022-12-04T10:50:18.338Z,11.53
2022-12-04T10:51:22.929Z,11.03
2022-12-04T10:52:25.996Z,11.77
2022-12-04T10:53:31.576Z,12.47
2022-12-04T10:54:36.489Z,12.05
2022-12-04T10:55:39.809Z,11.50
2022-12-04T10:56:52.487Z,11.00
2022-12-04T10:57:54.522Z,11.38
2022-12-04T10:58:59.694Z,11.98
2022-12-04T11:00:03.146Z,11.63
2022-12-04T11:01:11.577Z,12.25
2022-12-04T11:02:21.487Z,12.57
2022-12-04T11:03:27.539Z,12.00
2022-12-04T11:04:32.880Z,12.45
2022-12-04T11:05:39.861Z,12.40
2022-12-04T11:06:42.001Z,13.10
2022-12-04T11:07:48.430Z,11.80
2022-12-04T11:08:52.929Z,12.38
2022-12-04T11:09:58.631Z,12.15
2022-12-04T11:11:03.534Z,11.68
2022-12-04T11:12:08.828Z,10.65
2022-12-04T11:13:17.692Z,11.10
2022-12-04T11:14:22.071Z,11.23
2022-12-04T11:15:25.795Z,11.52
2022-12-04T11:16:35.080Z,12.02
2022-12-04T11:17:38.141Z,12.15
2022-12-04T11:18:48.871Z,12.00
2022-12-04T11:20:00.671Z,11.55
2022-12-04T11:21:06.165Z,12.00
2022-12-04T11:22:13.796Z,12.90
2022-12-04T11:23:17.925Z,12.18
2022-12-04T11:24:24.384Z,11.77
2022-12-04T11:25:31.570Z,12.13
2022-12-04T11:26:36.998Z,11.93
2022-12-04T11:27:40.055Z,10.95
2022-12-04T11:28:53.634Z,11.63
2022-12-04T11:29:57.700Z,12.47
2022-12-04T11:31:03.838Z,12.85
2022-12-04T11:32:17.989Z,11.85
2022-12-04T11:33:28.701Z,12.23
2022-12-04T11:34:35.520Z,12.77
2022-12-04T11:35:38.605Z,12.38
2022-12-04T11:36:41.945Z,12.57
2022-12-04T11:37:55.016Z,12.30
2022-12-04T11:39:07.256Z,11.95
2022-12-04T11:40:19.316Z,12.13
2022-12-04T11:41:28.580Z,11.90
2022-12-04T11:42:32.186Z,11.87
2022-12-04T11:43:37.861Z,12.20
2022-12-04T11:44:49.903Z,12.90
2022-12-04T11:45:57.361Z,12.93
2022-12-04T11:47:02.330Z,12.10
2022-12-04T11:48:15.989Z,11.83
2022-12-04T11:49:21.588Z,11.83
2022-12-04T11:50:34.714Z,12.00
2022-12-04T11:51:49.855Z,11.17
2022-12-04T11:53:04.058Z,11.27
2022-12-04T11:54:17.583Z,11.60
2022-12-04T11:55:29.070Z,11.25
2022-12-04T11:56:35.564Z,10.53
2022-12-04T11:57:46.635Z,11.77
2022-12-04T11:59:22.068Z,11.18
2022-12-04T12:00:27.484Z,10.57
2022-12-04T12:01:42.089Z,11.75
2022-12-04T12:03:03.740Z,12.20
2022-12-04T12:04:30.260Z,12.02
2022-12-04T12:05:53.634Z,11.40
2022-12-04T12:07:12.569Z,10.85
2022-12-04T12:08:27.643Z,12.32
2022-12-04T12:09:39.224Z,11.20
2022-12-04T12:10:51.206Z,11.50
2022-12-04T12:12:01.729Z,11.17
2022-12-04T12:13:11.844Z,12.52
2022-12-04T12:14:23.915Z,11.83
2022-12-04T12:15:37.105Z,12.65
2022-12-04T12:18:22.448Z,12.13
2022-12-04T12:19:47.410Z,12.13
2022-12-04T12:20:59.588Z,12.80
2022-12-04T12:22:13.022Z,12.57
2022-12-04T12:23:34.364Z,11.80
2022-12-04T12:24:51.476Z,12.85
2022-12-04T12:26:02.504Z,12.13
2022-12-04T12:27:19.510Z,12.82
2022-12-04T12:28:35.809Z,12.48
2022-12-04T12:29:56.667Z,13.00
2022-12-04T12:31:14.386Z,13.55
2022-12-04T12:32:32.788Z,12.60
2022-12-04T12:33:41.699Z,13.65
2022-12-04T12:34:47.533Z,12.98
2022-12-04T12:35:57.844Z,13.70
2022-12-04T12:37:05.080Z,13.23
2022-12-04T12:38:11.701Z,13.13
2022-12-04T12:39:23.339Z,12.57
2022-12-04T12:40:32.208Z,13.57
2022-12-04T12:41:40.598Z,12.80
2022-12-04T12:42:55.049Z,13.10
2022-12-04T12:44:05.918Z,13.68
2022-12-04T12:45:30.798Z,13.23
2022-12-04T12:46:38.335Z,12.93
2022-12-04T12:47:46.350Z,14.10
2022-12-04T12:48:58.655Z,13.30
2022-12-04T12:50:06.503Z,13.35
2022-12-04T12:51:30.493Z,13.13
2022-12-04T12:52:38.251Z,13.52
2022-12-04T12:53:47.844Z,14.30
2022-12-04T12:54:57.254Z,13.68
2022-12-04T12:56:03.152Z,13.98
2022-12-04T12:57:10.385Z,14.45
2022-12-04T12:58:18.470Z,13.95
2022-12-04T12:59:25.008Z,15.73
2022-12-04T13:00:30.520Z,14.63
2022-12-04T13:01:43.633Z,14.65
2022-12-04T13:02:50.514Z,15.32
2022-12-04T13:03:58.560Z,15.23
2022-12-04T13:05:06.980Z,15.80
2022-12-04T13:06:14.512Z,15.57
2022-12-04T13:07:28.738Z,15.82
2022-12-04T13:08:37.083Z,14.65
2022-12-04T13:09:43.427Z,14.70
2022-12-04T13:10:50.986Z,14.35
2022-12-04T13:12:04.441Z,13.15
2022-12-04T13:13:10.786Z,14.05
2022-12-04T13:14:15.149Z,14.43
2022-12-04T13:15:20.924Z,13.63
2022-12-04T13:16:26.724Z,14.00
2022-12-04T13:17:34.955Z,14.90
2022-12-04T13:18:41.395Z,12.65
2022-12-04T13:19:49.653Z,12.50
2022-12-04T13:20:55.749Z,14.13
2022-12-04T13:22:12.293Z,13.82
2022-12-04T13:23:37.707Z,12.98
2022-12-04T13:25:05.108Z,12.35
2022-12-04T13:26:19.886Z,12.68
2022-12-04T13:27:35.391Z,14.23
2022-12-04T13:28:50.626Z,13.65
2022-12-04T13:30:11.322Z,13.82
2022-12-04T13:31:24.905Z,13.48
2022-12-04T13:32:41.659Z,13.95
2022-12-04T13:34:00.405Z,13.30
2022-12-04T13:35:10.437Z,14.07
2022-12-04T13:36:44.837Z,13.77
2022-12-04T13:38:08.277Z,14.07
2022-12-04T13:39:39.950Z,14.00
2022-12-04T13:40:47.731Z,13.38
2022-12-04T13:41:57.766Z,13.88
2022-12-04T13:43:36.668Z,13.70
2022-12-04T13:44:40.773Z,12.50
2022-12-04T13:45:47.570Z,13.80
2022-12-04T13:46:55.708Z,14.32
2022-12-04T13:47:59.404Z,13.43
2022-12-04T13:49:10.867Z,14.40
2022-12-04T13:50:32.336Z,14.07
2022-12-04T13:51:36.573Z,15.07
2022-12-04T13:52:43.057Z,14.35
2022-12-04T13:53:45.175Z,14.82
2022-12-04T13:54:58.603Z,14.35
2022-12-04T13:56:06.188Z,15.45
2022-12-04T13:57:20.964Z,14.05
2022-12-04T13:58:27.517Z,14.50
2022-12-04T13:59:39.578Z,13.32
2022-12-04T14:00:43.632Z,13.38
2022-12-04T14:01:49.236Z,13.23
2022-12-04T14:02:53.726Z,13.15
2022-12-04T14:03:57.511Z,13.25
2022-12-04T14:05:02.545Z,13.93
2022-12-04T14:06:20.957Z,14.93
2022-12-04T14:07:28.741Z,13.95
2022-12-04T14:08:38.017Z,13.57
2022-12-04T14:09:44.294Z,13.95
2022-12-04T14:10:57.807Z,15.27
2022-12-04T14:12:02.936Z,15.07
2022-12-04T14:13:09.708Z,14.00
2022-12-04T14:14:25.575Z,14.82
2022-12-04T14:15:31.764Z,14.20
2022-12-04T14:16:40.751Z,14.88
2022-12-04T14:17:47.419Z,14.55
2022-12-04T14:18:53.080Z,15.20
2022-12-04T14:19:59.890Z,14.32
2022-12-04T14:21:07.245Z,15.27
2022-12-04T14:22:28.179Z,14.48
2022-12-04T14:23:38.550Z,13.88
2022-12-04T14:24:41.704Z,13.40
2022-12-04T14:25:44.125Z,13.70
2022-12-04T14:28:24.855Z,14.98
2022-12-04T14:29:38.935Z,16.20
2022-12-04T14:30:44.211Z,17.08
2022-12-04T14:31:47.360Z,15.45
2022-12-04T14:32:53.147Z,15.40